Aviation Digital Data Service (ADDS)

Output produced by METARs form (1856 UTC 26 March 2017)
found at http://aviationweather.gov/adds/metars/
 
KACY 261737Z 2618/2718 07010G18KT P6SM OVC010 
     FM262100 08012KT 6SM BR OVC007 
     FM270300 10010KT 4SM BR OVC003 
     FM270900 15007KT 4SM BR OVC003 
     FM271500 20010G18KT P6SM BKN015